Time;durP1;ratioP1;P1;durP2;ratioP2;P2;SDS_P1;SDS_P2;PMS_P1;PMS_P2;Temp;Humidity;BMP_temperature;BMP_pressure;BME280_temperature;BME280_humidity;BME280_pressure;Samples;Min_cycle;Max_cycle;Signal;HPM_P1;HPM_P2
2022/09/30 00:01:55;;;;;;;6.40;3.90;;;;;;;6.72;100.00;98265.75;4998833;28;20231;-81
2022/09/30 00:04:25;;;;;;;6.23;4.13;;;;;;;6.82;100.00;98269.50;5047949;28;20205;-80
2022/09/30 00:06:54;;;;;;;5.43;4.00;;;;;;;6.69;100.00;98269.44;5050594;28;20193;-80
2022/09/30 00:09:23;;;;;;;5.23;3.67;;;;;;;6.62;100.00;98269.91;5042947;28;20599;-80
2022/09/30 00:11:52;;;;;;;4.40;3.70;;;;;;;6.76;100.00;98264.63;5021451;28;20206;-80
2022/09/30 00:14:22;;;;;;;5.23;3.70;;;;;;;6.66;100.00;98269.63;5021590;28;20233;-81
2022/09/30 00:16:52;;;;;;;6.53;4.00;;;;;;;6.60;100.00;98276.09;5031252;28;20324;-80
2022/09/30 00:19:21;;;;;;;5.07;3.97;;;;;;;6.70;100.00;98270.28;5026223;28;20328;-81
2022/09/30 00:21:50;;;;;;;8.47;4.07;;;;;;;6.63;100.00;98282.97;4992163;28;20244;-80
2022/09/30 00:24:18;;;;;;;5.93;4.20;;;;;;;6.41;100.00;98278.19;5029353;28;20190;-80
2022/09/30 00:26:46;;;;;;;5.27;3.90;;;;;;;6.32;100.00;98274.31;5029076;28;20190;-80
2022/09/30 00:29:15;;;;;;;8.97;4.70;;;;;;;6.26;100.00;98284.34;5023052;28;20198;-81
2022/09/30 00:31:43;;;;;;;8.97;4.63;;;;;;;6.21;100.00;98279.41;5031786;28;20280;-81
2022/09/30 00:34:13;;;;;;;6.23;4.57;;;;;;;6.36;100.00;98280.22;5031863;28;20201;-81
2022/09/30 00:36:44;;;;;;;8.80;5.17;;;;;;;6.38;100.00;98278.38;4966895;28;20244;-81
2022/09/30 00:39:15;;;;;;;6.53;4.30;;;;;;;6.33;100.00;98283.06;5032223;28;20210;-81
2022/09/30 00:41:48;;;;;;;5.77;4.20;;;;;;;6.31;100.00;98280.53;5029677;28;20645;-80
2022/09/30 00:44:56;;;;;;;7.63;5.13;;;;;;;6.16;100.00;98283.22;5029833;28;20237;-81
2022/09/30 00:47:45;;;;;;;6.07;4.90;;;;;;;6.42;100.00;98281.66;5027338;28;20201;-80
2022/09/30 00:50:38;;;;;;;7.70;5.17;;;;;;;6.34;100.00;98284.75;5045777;28;20348;-80
2022/09/30 00:53:12;;;;;;;6.20;4.80;;;;;;;6.57;100.00;98284.19;5047108;28;20244;-81
2022/09/30 00:55:50;;;;;;;5.40;4.27;;;;;;;6.44;100.00;98288.50;5044834;28;20196;-80
2022/09/30 00:58:26;;;;;;;6.60;4.60;;;;;;;6.43;100.00;98283.34;5044583;28;20229;-81
2022/09/30 01:00:55;;;;;;;5.57;4.00;;;;;;;6.27;100.00;98288.69;5044330;28;20193;-80
2022/09/30 01:03:24;;;;;;;6.83;3.90;;;;;;;6.24;100.00;98288.88;5046851;28;20197;-81
2022/09/30 01:05:54;;;;;;;5.97;4.20;;;;;;;6.29;100.00;98285.03;5044716;28;20687;-80
2022/09/30 01:08:24;;;;;;;6.43;4.43;;;;;;;6.32;100.00;98284.84;5033302;28;20201;-80
2022/09/30 01:10:52;;;;;;;5.23;4.10;;;;;;;6.35;100.00;98290.84;4955378;28;20267;-81
2022/09/30 01:13:26;;;;;;;5.27;4.10;;;;;;;6.35;100.00;98293.47;4951020;28;20207;-81
2022/09/30 01:16:20;;;;;;;9.73;4.27;;;;;;;6.32;100.00;98298.00;4958404;28;20196;-81
2022/09/30 01:18:58;;;;;;;6.53;4.30;;;;;;;6.20;100.00;98298.75;4953913;28;20370;-81
2022/09/30 01:22:06;;;;;;;6.17;4.03;;;;;;;6.11;100.00;98298.44;4933329;29;20763;-81
2022/09/30 01:25:04;;;;;;;5.17;3.90;;;;;;;6.03;100.00;98298.91;4926230;29;20716;-81
2022/09/30 01:28:06;;;;;;;5.90;4.03;;;;;;;5.91;100.00;98304.88;4931593;29;20209;-81
2022/09/30 01:31:02;;;;;;;5.73;3.77;;;;;;;5.88;100.00;98313.75;4928111;29;20660;-81
2022/09/30 01:33:42;;;;;;;7.13;4.73;;;;;;;5.93;100.00;98305.63;4925111;29;20232;-81
2022/09/30 01:36:25;;;;;;;7.50;4.87;;;;;;;5.71;100.00;98317.38;4932912;28;20216;-81
2022/09/30 01:39:10;;;;;;;5.03;4.00;;;;;;;5.69;100.00;98313.13;4916181;28;20266;-81
2022/09/30 01:41:45;;;;;;;4.23;3.83;;;;;;;5.80;100.00;98312.53;4994124;28;20195;-79
2022/09/30 01:44:19;;;;;;;6.13;4.33;;;;;;;5.74;100.00;98317.19;4994461;28;20673;-80
2022/09/30 01:46:55;;;;;;;5.50;4.67;;;;;;;5.73;100.00;98315.50;5013404;28;20296;-80
2022/09/30 01:49:31;;;;;;;6.30;4.63;;;;;;;5.92;100.00;98315.31;4956579;28;20203;-80
2022/09/30 01:52:09;;;;;;;6.03;4.80;;;;;;;5.87;100.00;98326.97;4956415;28;20267;-80
2022/09/30 01:54:43;;;;;;;7.17;4.63;;;;;;;5.63;100.00;98318.75;4953891;28;20196;-81
2022/09/30 01:57:18;;;;;;;4.80;4.30;;;;;;;5.64;100.00;98320.44;4960659;28;20236;-81
2022/09/30 01:59:51;;;;;;;8.00;4.37;;;;;;;5.72;100.00;98332.19;4953074;28;20200;-81
2022/09/30 02:02:27;;;;;;;7.20;3.93;;;;;;;5.73;100.00;98330.41;4951134;28;20196;-80
2022/09/30 02:05:01;;;;;;;7.13;4.97;;;;;;;5.67;100.00;98330.75;4922768;28;20216;-80
2022/09/30 02:07:37;;;;;;;15.70;6.07;;;;;;;5.60;100.00;98330.28;4900432;28;20195;-81
2022/09/30 02:10:12;;;;;;;20.33;5.67;;;;;;;5.56;100.00;98333.16;4898254;28;20250;-80
2022/09/30 02:12:47;;;;;;;13.70;6.07;;;;;;;5.45;100.00;98331.13;4902996;28;20225;-81
2022/09/30 02:15:21;;;;;;;13.93;5.50;;;;;;;5.43;100.00;98336.47;4959132;28;20243;-80
2022/09/30 02:17:57;;;;;;;9.97;5.37;;;;;;;5.29;100.00;98338.16;5008753;28;20198;-81
2022/09/30 02:20:32;;;;;;;18.97;6.70;;;;;;;5.33;100.00;98335.31;5011939;28;20198;-81
2022/09/30 02:23:06;;;;;;;13.43;6.43;;;;;;;5.38;100.00;98335.03;4963314;28;20225;-81
2022/09/30 02:25:39;;;;;;;24.43;6.23;;;;;;;5.24;100.00;98338.44;5006377;28;20229;-80
2022/09/30 02:28:16;;;;;;;11.10;5.73;;;;;;;5.12;100.00;98332.09;5007784;28;20190;-81
2022/09/30 02:30:49;;;;;;;10.83;5.17;;;;;;;5.15;100.00;98333.69;5008559;28;20217;-80
2022/09/30 02:33:24;;;;;;;13.67;5.60;;;;;;;5.18;100.00;98326.50;5003171;28;20279;-81
2022/09/30 02:35:56;;;;;;;21.00;5.83;;;;;;;5.27;100.00;98329.53;5010531;28;20209;-81
2022/09/30 02:38:30;;;;;;;25.43;5.90;;;;;;;5.18;100.00;98331.75;5011480;28;20230;-81
2022/09/30 02:41:05;;;;;;;17.57;5.80;;;;;;;5.16;100.00;98335.41;5011421;28;20198;-81
2022/09/30 02:43:34;;;;;;;15.30;5.77;;;;;;;4.96;100.00;98333.88;4954588;28;20232;-81
2022/09/30 02:46:08;;;;;;;23.03;5.77;;;;;;;5.03;100.00;98337.84;4948044;28;20263;-81
2022/09/30 02:48:45;;;;;;;20.10;5.63;;;;;;;5.09;100.00;98349.78;4972039;28;20235;-81
2022/09/30 02:51:20;;;;;;;18.00;4.90;;;;;;;5.01;100.00;98341.47;4964389;28;20239;-81
2022/09/30 02:53:57;;;;;;;10.00;5.23;;;;;;;4.94;100.00;98348.00;4952682;28;20196;-80
2022/09/30 02:56:34;;;;;;;18.70;6.07;;;;;;;4.81;100.00;98347.81;4954382;28;20204;-80
2022/09/30 02:59:02;;;;;;;16.17;5.30;;;;;;;4.89;100.00;98350.84;4954146;28;20196;-80
2022/09/30 03:01:31;;;;;;;18.40;6.20;;;;;;;4.87;100.00;98347.47;4960618;28;20235;-80
2022/09/30 03:04:06;;;;;;;11.17;5.30;;;;;;;4.90;100.00;98355.19;4953068;28;20205;-80
2022/09/30 03:06:36;;;;;;;5.73;4.80;;;;;;;4.87;100.00;98358.81;4970117;28;20199;-80
2022/09/30 03:09:05;;;;;;;15.57;5.50;;;;;;;4.84;100.00;98358.16;4970435;28;20228;-81
2022/09/30 03:11:34;;;;;;;5.63;4.57;;;;;;;4.88;100.00;98359.66;4980936;28;20277;-80
2022/09/30 03:14:31;;;;;;;6.57;4.93;;;;;;;4.96;100.00;98352.22;4980595;28;20192;-80
2022/09/30 03:17:30;;;;;;;8.00;5.13;;;;;;;4.85;100.00;98358.06;4980474;28;20214;-80
2022/09/30 03:20:16;;;;;;;5.67;5.07;;;;;;;4.98;100.00;98365.25;4983602;28;20218;-80
2022/09/30 03:23:05;;;;;;;6.37;5.20;;;;;;;4.86;100.00;98367.63;4975550;28;20231;-80
2022/09/30 03:25:47;;;;;;;5.97;5.10;;;;;;;4.81;100.00;98364.38;4983901;28;20227;-80
2022/09/30 03:28:25;;;;;;;6.30;5.37;;;;;;;4.72;100.00;98369.28;4973051;28;20195;-81
2022/09/30 03:31:04;;;;;;;6.27;5.23;;;;;;;4.82;100.00;98365.22;4977970;28;20257;-80
2022/09/30 03:33:45;;;;;;;6.97;5.40;;;;;;;4.91;100.00;98369.13;4981243;28;20237;-80
2022/09/30 03:36:24;;;;;;;6.40;5.67;;;;;;;4.88;100.00;98378.03;4972806;28;20203;-80
2022/09/30 03:39:01;;;;;;;6.43;5.03;;;;;;;4.66;100.00;98380.94;4983768;28;20192;-80
2022/09/30 03:41:36;;;;;;;6.77;6.03;;;;;;;4.71;100.00;98378.06;4985500;28;20245;-80
2022/09/30 03:44:12;;;;;;;6.37;5.20;;;;;;;4.74;100.00;98384.03;5012491;28;20232;-80
2022/09/30 03:46:44;;;;;;;6.63;5.53;;;;;;;4.88;100.00;98375.41;5007374;28;20201;-80
2022/09/30 03:49:18;;;;;;;5.60;5.10;;;;;;;4.87;100.00;98378.97;5011315;28;20218;-80
2022/09/30 03:51:48;;;;;;;6.17;5.10;;;;;;;4.72;100.00;98377.13;5005556;28;20222;-80
2022/09/30 03:54:21;;;;;;;6.67;5.33;;;;;;;4.49;100.00;98375.72;5005623;28;20202;-80
2022/09/30 03:56:50;;;;;;;6.20;5.13;;;;;;;4.59;100.00;98374.31;5009952;28;20345;-80
2022/09/30 03:59:24;;;;;;;11.17;5.47;;;;;;;4.57;100.00;98377.03;5009390;28;20198;-80
2022/09/30 04:01:53;;;;;;;8.30;5.40;;;;;;;4.48;100.00;98388.00;4999054;28;20236;-80
2022/09/30 04:04:22;;;;;;;39.57;6.47;;;;;;;4.44;100.00;98389.09;4972397;28;20204;-80
2022/09/30 04:06:53;;;;;;;33.13;7.20;;;;;;;4.45;100.00;98400.44;4982149;28;20188;-80
2022/09/30 04:09:22;;;;;;;22.23;8.13;;;;;;;4.17;100.00;98404.44;4981228;28;20223;-80
2022/09/30 04:11:51;;;;;;;33.10;9.40;;;;;;;4.27;100.00;98412.69;4977592;28;20224;-80
2022/09/30 04:14:19;;;;;;;33.60;11.90;;;;;;;4.08;100.00;98414.53;4977615;28;20231;-80
2022/09/30 04:16:48;;;;;;;71.20;11.13;;;;;;;4.03;100.00;98414.75;4979761;28;20196;-80
2022/09/30 04:19:21;;;;;;;67.27;9.90;;;;;;;3.91;100.00;98416.22;4977900;28;20206;-80
2022/09/30 04:21:52;;;;;;;50.07;7.73;;;;;;;4.00;100.00;98430.63;4980257;28;20196;-80
2022/09/30 04:24:22;;;;;;;35.77;7.70;;;;;;;3.99;100.00;98432.41;4972415;28;20208;-85
2022/09/30 04:26:54;;;;;;;39.10;6.43;;;;;;;4.08;100.00;98430.25;4980341;28;20207;-81
2022/09/30 04:29:22;;;;;;;34.07;6.47;;;;;;;4.02;100.00;98431.41;4984633;28;20282;-80
2022/09/30 04:31:51;;;;;;;28.57;6.33;;;;;;;4.06;100.00;98434.72;4981993;28;20311;-80
2022/09/30 04:34:20;;;;;;;25.93;5.80;;;;;;;4.12;100.00;98439.66;4982109;28;20252;-80
2022/09/30 04:36:48;;;;;;;49.03;7.37;;;;;;;4.02;100.00;98449.72;4971388;28;20203;-80
2022/09/30 04:39:18;;;;;;;34.00;6.30;;;;;;;4.03;100.00;98459.28;4979147;28;20284;-80
2022/09/30 04:41:47;;;;;;;27.60;6.30;;;;;;;3.90;100.00;98461.66;4968347;28;20231;-80
2022/09/30 04:44:16;;;;;;;48.80;7.30;;;;;;;3.88;100.00;98470.53;4966449;28;20237;-80
2022/09/30 04:46:45;;;;;;;28.40;6.37;;;;;;;3.92;100.00;98469.44;4954251;28;20307;-80
2022/09/30 04:49:14;;;;;;;42.93;7.37;;;;;;;3.81;100.00;98469.13;4950603;28;20755;-80
2022/09/30 04:51:44;;;;;;;39.73;6.97;;;;;;;3.93;100.00;98469.38;4915915;28;20282;-80
2022/09/30 04:54:15;;;;;;;48.63;6.73;;;;;;;3.87;100.00;98471.44;4989140;28;20201;-80
2022/09/30 04:56:45;;;;;;;46.07;7.37;;;;;;;3.84;100.00;98463.72;4948057;29;20305;-80
2022/09/30 04:59:13;;;;;;;37.37;6.77;;;;;;;3.90;100.00;98463.44;4950969;29;20192;-81
2022/09/30 05:01:43;;;;;;;42.27;6.77;;;;;;;3.89;100.00;98474.84;4954850;29;20192;-80
2022/09/30 05:04:12;;;;;;;26.63;6.57;;;;;;;3.90;100.00;98473.91;4950170;29;20628;-79
2022/09/30 05:06:41;;;;;;;56.90;7.67;;;;;;;3.88;100.00;98465.28;4946054;28;20664;-80
2022/09/30 05:09:09;;;;;;;66.90;8.17;;;;;;;3.89;100.00;98470.44;4952925;29;20192;-80
2022/09/30 05:11:41;;;;;;;47.57;7.10;;;;;;;3.94;100.00;98473.69;4957941;28;20293;-81
2022/09/30 05:14:11;;;;;;;41.10;7.33;;;;;;;3.97;100.00;98473.56;4997979;28;20645;-80
2022/09/30 05:16:42;;;;;;;26.07;6.67;;;;;;;3.96;100.00;98468.41;4947056;28;20212;-80
2022/09/30 05:19:11;;;;;;;46.83;7.67;;;;;;;3.98;100.00;98477.88;4970787;28;20207;-80
2022/09/30 05:21:43;;;;;;;38.97;8.20;;;;;;;3.99;100.00;98481.34;4970269;28;20199;-80
2022/09/30 05:24:13;;;;;;;38.87;8.20;;;;;;;4.05;100.00;98488.03;4951356;28;20200;-81
2022/09/30 05:26:46;;;;;;;14.57;6.03;;;;;;;4.13;100.00;98493.75;4971190;28;20192;-81
2022/09/30 05:29:16;;;;;;;21.80;7.53;;;;;;;4.13;100.00;98499.84;4966985;28;20203;-80
2022/09/30 05:31:47;;;;;;;11.43;6.10;;;;;;;4.21;100.00;98499.47;4968271;28;20670;-80
2022/09/30 05:34:17;;;;;;;109.50;11.13;;;;;;;4.06;100.00;98501.09;4963872;28;20227;-80
2022/09/30 05:36:47;;;;;;;47.30;13.70;;;;;;;4.14;100.00;98513.78;4973052;28;20192;-80
2022/09/30 05:39:15;;;;;;;42.57;11.53;;;;;;;4.12;100.00;98532.22;4971207;28;20196;-79
2022/09/30 05:41:48;;;;;;;54.00;8.83;;;;;;;3.96;100.00;98526.03;4969731;28;20199;-80
2022/09/30 05:44:18;;;;;;;23.40;6.60;;;;;;;3.88;100.00;98533.41;4967958;28;20231;-80
2022/09/30 05:46:46;;;;;;;43.33;6.93;;;;;;;3.85;100.00;98531.75;4971341;28;20212;-80
2022/09/30 05:49:16;;;;;;;22.93;5.87;;;;;;;3.97;100.00;98535.59;4963679;28;20196;-80
2022/09/30 05:51:45;;;;;;;12.23;5.60;;;;;;;4.07;100.00;98543.84;4970038;28;20228;-80
2022/09/30 05:54:14;;;;;;;50.73;7.60;;;;;;;3.85;100.00;98549.22;4935226;28;20215;-80
2022/09/30 05:56:43;;;;;;;38.67;6.43;;;;;;;3.86;100.00;98557.03;4971376;28;20199;-81
2022/09/30 05:59:12;;;;;;;27.07;6.80;;;;;;;4.00;100.00;98554.63;4976859;28;20188;-81
2022/09/30 06:01:42;;;;;;;14.20;5.83;;;;;;;4.00;100.00;98562.47;4969894;28;20196;-81
2022/09/30 06:04:11;;;;;;;27.20;6.30;;;;;;;3.87;100.00;98556.13;4971192;28;20275;-81
2022/09/30 06:06:39;;;;;;;22.27;6.53;;;;;;;4.07;100.00;98559.56;4975897;28;20658;-81
2022/09/30 06:09:08;;;;;;;21.47;6.13;;;;;;;4.05;100.00;98566.63;4965194;28;20257;-80
2022/09/30 06:11:36;;;;;;;20.20;6.50;;;;;;;4.15;100.00;98560.91;4963245;28;20206;-80
2022/09/30 06:14:05;;;;;;;7.93;5.90;;;;;;;4.22;100.00;98562.28;4926119;29;20310;-80
2022/09/30 06:16:33;;;;;;;24.43;6.43;;;;;;;4.23;100.00;98565.75;4928721;28;20198;-80
2022/09/30 06:19:05;;;;;;;12.70;5.17;;;;;;;4.24;100.00;98573.53;4935282;28;20311;-80
2022/09/30 06:21:34;;;;;;;74.67;8.60;;;;;;;4.08;100.00;98571.75;4925742;29;20205;-80
2022/09/30 06:24:08;;;;;;;29.37;6.17;;;;;;;4.16;100.00;98577.50;4930398;29;20197;-81
2022/09/30 06:26:37;;;;;;;33.27;6.50;;;;;;;4.28;100.00;98569.88;4936949;28;20222;-81
2022/09/30 06:29:06;;;;;;;22.33;6.17;;;;;;;4.33;100.00;98574.88;4932793;28;20236;-80
2022/09/30 06:31:35;;;;;;;8.20;4.83;;;;;;;4.37;100.00;98579.06;4946432;28;20223;-80
2022/09/30 06:34:05;;;;;;;14.30;5.30;;;;;;;4.50;100.00;98589.81;4972334;28;20441;-80
2022/09/30 06:36:38;;;;;;;12.07;4.97;;;;;;;4.60;100.00;98584.03;4972513;28;20199;-80
2022/09/30 06:39:07;;;;;;;20.37;5.50;;;;;;;4.50;100.00;98579.31;4977368;28;20207;-80
2022/09/30 06:41:42;;;;;;;28.00;5.80;;;;;;;4.54;100.00;98586.13;4974336;28;20202;-80
2022/09/30 06:44:13;;;;;;;66.07;8.57;;;;;;;4.58;100.00;98592.91;4971197;28;20210;-81
2022/09/30 06:46:42;;;;;;;54.67;8.03;;;;;;;4.55;100.00;98588.66;4973530;28;20192;-81
2022/09/30 06:49:22;;;;;;;23.63;5.93;;;;;;;4.71;100.00;98588.75;4974260;28;20257;-80
2022/09/30 06:51:51;;;;;;;40.93;7.13;;;;;;;4.81;100.00;98589.13;4970339;28;20196;-81
2022/09/30 06:54:22;;;;;;;37.63;6.83;;;;;;;4.73;100.00;98596.53;5023931;28;20239;-80
2022/09/30 06:56:52;;;;;;;17.03;5.17;;;;;;;4.78;100.00;98592.78;4972981;28;20233;-81
2022/09/30 06:59:21;;;;;;;78.87;8.40;;;;;;;4.68;100.00;98588.91;4976736;28;20227;-81
2022/09/30 07:01:50;;;;;;;30.30;6.80;;;;;;;4.84;100.00;98589.00;4969384;28;20202;-80
2022/09/30 07:04:18;;;;;;;52.87;7.37;;;;;;;4.85;100.00;98593.34;4971447;28;20249;-80
2022/09/30 07:06:49;;;;;;;76.30;9.50;;;;;;;4.90;100.00;98593.94;4976120;28;20643;-80
2022/09/30 07:09:17;;;;;;;13.97;5.27;;;;;;;5.03;100.00;98592.41;4966961;28;20282;-81
2022/09/30 07:11:47;;;;;;;38.30;7.50;;;;;;;5.00;100.00;98597.78;4977210;28;20682;-80
2022/09/30 07:14:15;;;;;;;37.60;6.60;;;;;;;5.12;100.00;98601.59;4967427;28;20295;-81
2022/09/30 07:16:45;;;;;;;11.47;5.97;;;;;;;5.28;100.00;98606.88;4970909;28;20207;-80
2022/09/30 07:19:16;;;;;;;40.53;7.80;;;;;;;5.38;100.00;98601.09;4975279;28;20364;-81
2022/09/30 07:21:44;;;;;;;9.93;6.07;;;;;;;5.61;100.00;98606.94;4913095;28;20206;-81
2022/09/30 07:24:14;;;;;;;58.87;9.13;;;;;;;5.67;100.00;98604.81;4910610;29;20197;-81
2022/09/30 07:26:44;;;;;;;72.57;9.60;;;;;;;5.65;100.00;98613.72;4918665;28;20284;-81
2022/09/30 07:29:13;;;;;;;67.93;9.27;;;;;;;5.74;100.00;98611.44;4873811;29;20245;-81
2022/09/30 07:31:41;;;;;;;17.63;6.83;;;;;;;5.89;100.00;98616.81;4915494;28;20305;-81
2022/09/30 07:34:10;;;;;;;18.53;7.37;;;;;;;6.05;100.00;98617.69;4907403;29;20221;-80
2022/09/30 07:36:40;;;;;;;14.60;6.53;;;;;;;5.97;100.00;98610.22;4914263;28;20290;-81
2022/09/30 07:39:11;;;;;;;28.37;7.80;;;;;;;6.05;100.00;98612.44;4910816;29;20238;-81
2022/09/30 07:41:44;;;;;;;8.00;5.67;;;;;;;6.26;100.00;98611.25;4954287;28;20201;-81
2022/09/30 07:44:14;;;;;;;26.40;6.97;;;;;;;6.37;100.00;98612.44;4950405;29;20197;-81
2022/09/30 07:46:44;;;;;;;13.17;6.47;;;;;;;6.44;100.00;98616.44;4996965;28;20235;-81
2022/09/30 07:49:23;;;;;;;25.30;6.53;;;;;;;6.57;100.00;98622.72;5032776;28;20245;-81
2022/09/30 07:51:54;;;;;;;26.70;6.97;;;;;;;6.72;100.00;98632.38;5028859;28;20614;-81
2022/09/30 07:54:26;;;;;;;14.90;6.93;;;;;;;6.84;100.00;98631.66;5032466;28;20253;-81
2022/09/30 07:56:57;;;;;;;15.93;6.47;;;;;;;7.05;100.00;98629.59;5032700;28;20245;-81
2022/09/30 07:59:44;;;;;;;9.73;6.40;;;;;;;7.01;100.00;98638.59;5003876;28;20334;-81
2022/09/30 08:02:17;;;;;;;14.90;6.47;;;;;;;7.23;100.00;98638.19;4970815;28;20196;-81
2022/09/30 08:04:46;;;;;;;7.83;6.90;;;;;;;7.10;100.00;98640.69;4973063;28;20205;-82
2022/09/30 08:07:17;;;;;;;9.47;6.70;;;;;;;7.34;100.00;98648.97;4974460;28;20195;-82
2022/09/30 08:09:46;;;;;;;9.27;6.53;;;;;;;7.57;100.00;98646.75;4969724;28;20244;-82
2022/09/30 08:12:16;;;;;;;10.20;6.80;;;;;;;7.80;100.00;98653.25;4972634;28;20196;-81
2022/09/30 08:14:45;;;;;;;9.90;6.60;;;;;;;7.93;100.00;98644.50;4962960;28;20223;-81
2022/09/30 08:17:15;;;;;;;8.20;7.10;;;;;;;7.88;100.00;98649.19;4973463;28;20274;-82
2022/09/30 08:19:44;;;;;;;7.60;6.80;;;;;;;8.04;100.00;98651.75;4967850;28;20237;-81
2022/09/30 08:22:13;;;;;;;11.93;7.33;;;;;;;8.21;100.00;98654.19;4971011;28;20203;-81
2022/09/30 08:24:42;;;;;;;7.77;6.77;;;;;;;8.22;100.00;98653.25;4965902;28;20224;-81
2022/09/30 08:27:10;;;;;;;8.93;7.50;;;;;;;8.17;100.00;98647.41;4977593;28;20249;-81
2022/09/30 08:29:43;;;;;;;7.70;6.90;;;;;;;8.43;100.00;98647.59;4976651;28;20283;-81
2022/09/30 08:32:31;;;;;;;11.60;7.33;;;;;;;8.45;100.00;98641.28;4972013;28;20206;-81
2022/09/30 08:34:59;;;;;;;8.00;7.07;;;;;;;8.50;100.00;98644.47;4972090;28;20215;-81
2022/09/30 08:37:28;;;;;;;8.10;7.07;;;;;;;8.65;100.00;98653.19;4954922;28;20674;-81
2022/09/30 08:39:59;;;;;;;7.90;6.80;;;;;;;8.74;100.00;98655.25;4968830;28;20203;-81
2022/09/30 08:42:39;;;;;;;9.53;7.13;;;;;;;8.77;100.00;98651.53;4971256;28;20188;-81
2022/09/30 08:45:22;;;;;;;10.53;8.00;;;;;;;8.76;100.00;98652.50;4895382;28;20207;-80
2022/09/30 08:48:00;;;;;;;8.20;7.37;;;;;;;8.88;100.00;98644.66;4891954;29;20665;-81
2022/09/30 08:50:34;;;;;;;9.90;7.37;;;;;;;8.94;100.00;98656.59;4875907;29;20217;-82
2022/09/30 08:53:09;;;;;;;7.53;6.47;;;;;;;9.20;100.00;98654.88;4892723;29;20202;-82
2022/09/30 08:55:42;;;;;;;8.43;7.30;;;;;;;9.52;100.00;98659.78;4891168;29;20247;-81
2022/09/30 08:58:22;;;;;;;8.30;7.20;;;;;;;9.09;100.00;98658.22;4891276;29;20226;-81
2022/09/30 09:00:57;;;;;;;8.03;7.23;;;;;;;9.52;100.00;98647.41;4895419;28;20234;-81
2022/09/30 09:03:29;;;;;;;9.70;7.77;;;;;;;9.74;100.00;98657.38;4894623;29;20214;-81
2022/09/30 09:06:13;;;;;;;8.17;7.23;;;;;;;9.90;100.00;98657.16;4893599;29;20249;-81
2022/09/30 09:08:53;;;;;;;9.17;7.57;;;;;;;10.37;100.00;98651.22;4894062;28;20230;-81
2022/09/30 09:11:41;;;;;;;9.70;6.97;;;;;;;10.77;100.00;98643.88;4969827;28;20200;-81
2022/09/30 09:14:24;;;;;;;7.63;6.83;;;;;;;10.75;100.00;98632.56;4973024;28;20196;-81
2022/09/30 09:17:06;;;;;;;9.07;7.63;;;;;;;10.88;100.00;98633.34;4982000;28;20188;-82
2022/09/30 09:19:47;;;;;;;14.20;9.70;;;;;;;10.84;100.00;98626.59;4978472;28;20196;-82
2022/09/30 09:22:17;;;;;;;8.70;6.80;;;;;;;11.26;100.00;98634.09;4980220;28;20207;-82
2022/09/30 09:24:53;;;;;;;7.23;6.53;;;;;;;11.59;100.00;98633.38;4973633;28;20218;-82
2022/09/30 09:27:30;;;;;;;8.07;7.00;;;;;;;11.80;100.00;98629.09;4976809;28;20192;-81
2022/09/30 09:30:06;;;;;;;8.23;7.10;;;;;;;11.91;100.00;98631.75;4971347;28;20251;-82
2022/09/30 09:32:39;;;;;;;9.03;7.07;;;;;;;12.20;100.00;98629.47;4981995;28;20243;-80
2022/09/30 09:35:15;;;;;;;8.17;6.83;;;;;;;11.63;100.00;98630.34;4992331;28;20214;-81
2022/09/30 09:40:56;;;;;;;7.93;6.63;;;;;;;12.54;100.00;98621.44;4971776;28;20245;-82
2022/09/30 09:43:35;;;;;;;8.97;6.97;;;;;;;12.78;100.00;98618.63;4983208;28;20273;-82
2022/09/30 09:46:13;;;;;;;8.17;7.03;;;;;;;13.05;100.00;98610.19;4979404;28;20199;-81
2022/09/30 09:48:49;;;;;;;8.30;6.73;;;;;;;13.26;100.00;98613.75;5015444;28;20192;-82
2022/09/30 09:51:26;;;;;;;8.73;6.50;;;;;;;13.32;100.00;98621.22;4973514;28;20214;-81
2022/09/30 09:53:59;;;;;;;7.47;6.63;;;;;;;13.22;100.00;98616.78;4982277;28;20225;-82
2022/09/30 09:56:29;;;;;;;9.30;7.30;;;;;;;13.44;100.00;98611.38;4973294;28;20247;-81
2022/09/30 09:59:09;;;;;;;9.57;7.07;;;;;;;13.27;100.00;98609.28;4965774;28;20289;-82
2022/09/30 10:01:41;;;;;;;7.70;6.90;;;;;;;13.96;100.00;98614.88;4964272;28;20643;-81
2022/09/30 10:04:26;;;;;;;8.17;6.67;;;;;;;14.57;100.00;98613.03;4968810;28;20210;-82
2022/09/30 10:06:58;;;;;;;6.07;5.47;;;;;;;14.56;100.00;98606.00;4978584;28;20643;-81
2022/09/30 10:09:32;;;;;;;7.27;5.80;;;;;;;14.76;100.00;98603.38;4971852;28;20265;-82
2022/09/30 10:12:29;;;;;;;7.03;5.77;;;;;;;14.70;100.00;98601.28;4974618;28;20192;-81
2022/09/30 10:15:02;;;;;;;8.50;5.93;;;;;;;14.09;100.00;98606.66;4977602;28;20220;-82
2022/09/30 10:17:33;;;;;;;9.67;7.37;;;;;;;14.56;100.00;98600.66;4969319;28;20192;-81
2022/09/30 10:20:07;;;;;;;10.27;6.73;;;;;;;15.14;100.00;98594.56;4981118;28;20223;-80
2022/09/30 10:22:37;;;;;;;7.43;6.00;;;;;;;15.56;100.00;98584.41;4951549;28;20281;-81
2022/09/30 10:25:24;;;;;;;7.97;6.97;;;;;;;14.45;100.00;98591.94;4974288;28;20200;-81
2022/09/30 10:27:57;;;;;;;8.70;6.77;;;;;;;14.72;100.00;98599.31;4933278;29;20205;-81
2022/09/30 10:30:41;;;;;;;8.13;6.50;;;;;;;15.37;100.00;98589.78;5013040;28;20661;-80
2022/09/30 10:33:20;;;;;;;9.53;5.70;;;;;;;15.00;100.00;98586.97;5008138;28;20270;-81
2022/09/30 10:35:55;;;;;;;7.27;5.07;;;;;;;15.79;100.00;98586.75;5011372;28;20218;-80
2022/09/30 10:38:28;;;;;;;7.10;5.43;;;;;;;16.19;100.00;98592.66;5006569;28;20249;-81
2022/09/30 10:40:59;;;;;;;9.97;5.50;;;;;;;16.16;100.00;98597.47;5006209;28;20229;-80
2022/09/30 10:43:33;;;;;;;8.60;6.00;;;;;;;16.06;100.00;98586.81;5011319;28;20199;-81
2022/09/30 10:46:04;;;;;;;9.40;5.67;;;;;;;16.36;100.00;98591.03;4964669;28;20228;-80
2022/09/30 10:48:55;;;;;;;9.53;6.37;;;;;;;15.71;100.00;98593.66;4966800;28;20303;-80
2022/09/30 10:51:33;;;;;;;8.37;6.13;;;;;;;16.29;100.00;98589.94;4928596;28;20228;-80
2022/09/30 10:54:03;;;;;;;8.70;6.40;;;;;;;16.46;100.00;98585.63;4968832;28;20200;-80
2022/09/30 10:56:52;;;;;;;10.83;6.40;;;;;;;16.56;100.00;98581.06;4972395;28;20255;-80
2022/09/30 10:59:33;;;;;;;9.80;5.97;;;;;;;16.12;100.00;98585.41;4971894;28;20261;-80
2022/09/30 11:02:19;;;;;;;7.13;6.03;;;;;;;16.05;100.00;98590.47;4970402;28;20215;-80
2022/09/30 11:04:55;;;;;;;9.20;6.37;;;;;;;15.12;100.00;98593.84;4968426;28;20207;-80
2022/09/30 11:07:31;;;;;;;7.93;6.57;;;;;;;15.50;100.00;98595.66;4976384;28;20219;-80
2022/09/30 11:10:07;;;;;;;11.23;6.53;;;;;;;14.49;100.00;98588.91;4970779;28;20235;-81
2022/09/30 11:12:43;;;;;;;9.20;7.07;;;;;;;14.69;100.00;98584.44;4972956;28;20277;-81
2022/09/30 11:15:19;;;;;;;7.90;5.77;;;;;;;15.08;100.00;98587.13;4969183;28;20188;-81
2022/09/30 11:17:55;;;;;;;11.10;6.50;;;;;;;15.91;100.00;98590.94;4978593;28;20244;-82
2022/09/30 11:20:30;;;;;;;9.93;6.60;;;;;;;15.62;100.00;98594.53;4966917;28;20253;-81
2022/09/30 11:23:10;;;;;;;11.33;6.73;;;;;;;15.29;100.00;98595.81;4972982;28;20196;-81
2022/09/30 11:25:48;;;;;;;8.77;6.70;;;;;;;15.32;100.00;98595.53;5024797;28;20213;-81
2022/09/30 11:28:36;;;;;;;9.37;4.90;;;;;;;15.03;100.00;98600.03;4974019;28;20207;-80
2022/09/30 11:31:13;;;;;;;8.73;5.70;;;;;;;14.95;100.00;98594.53;4979598;28;20187;-81
2022/09/30 11:33:56;;;;;;;7.33;5.20;;;;;;;15.29;100.00;98592.31;4991439;28;20199;-81
2022/09/30 11:36:30;;;;;;;7.70;5.37;;;;;;;15.82;100.00;98594.47;4993297;28;20218;-81
2022/09/30 11:39:17;;;;;;;7.27;4.87;;;;;;;16.24;100.00;98595.75;4989768;28;20298;-82
2022/09/30 11:41:52;;;;;;;9.57;4.70;;;;;;;16.47;100.00;98590.81;4988954;28;20195;-82
2022/09/30 11:44:33;;;;;;;10.67;6.23;;;;;;;15.56;100.00;98587.06;4948518;28;20200;-82
2022/09/30 11:47:26;;;;;;;7.10;5.03;;;;;;;15.73;100.00;98591.72;4986440;28;20203;-82
2022/09/30 11:50:08;;;;;;;13.23;10.57;;;;;;;16.40;100.00;98587.06;4989483;28;20215;-81
2022/09/30 11:52:48;;;;;;;6.83;4.23;;;;;;;15.72;100.00;98589.16;4971200;28;20347;-81
2022/09/30 11:55:56;;;;;;;5.23;3.80;;;;;;;15.04;100.00;98591.03;4925951;28;20212;-81
2022/09/30 11:58:29;;;;;;;6.00;4.20;;;;;;;16.01;100.00;98584.56;4981606;28;20194;-81
2022/09/30 12:01:23;;;;;;;6.70;4.40;;;;;;;15.99;100.00;98583.88;4988098;28;20219;-81
2022/09/30 12:04:05;;;;;;;6.37;4.20;;;;;;;15.53;100.00;98589.16;4985279;28;20215;-82